Terminal Aerodrome Forecast
Issued by NWS

Current Version | Previous Version | Text Only | Print | Product List | Glossary On
Versions: 1 2 3 4 5 6 7 8 9 10 11 12 13 14 15
507
FTUS43 KGRR 291140
TAFBTL
TAF
KBTL 291140Z 2912/3012 23010KT P6SM SCT100
     FM291530 25014G24KT P6SM SCT040 BKN100
     FM292000 26014G24KT P6SM VCSH BKN050
     FM300100 24008KT P6SM BKN050=

USA.gov is the U.S. government's official web portal to all federal, state and local government web resources and services.